createdAt,value
2018-05-11T00:00:08.093Z,933.27
2018-05-11T00:01:08.596Z,933.24
2018-05-11T00:02:08.013Z,933.29
2018-05-11T00:03:07.939Z,933.27
2018-05-11T00:04:07.911Z,933.29
2018-05-11T00:05:07.857Z,933.31
2018-05-11T00:06:07.817Z,933.33
2018-05-11T00:07:07.796Z,933.29
2018-05-11T00:08:07.745Z,933.28
2018-05-11T00:09:07.702Z,933.31
2018-05-11T00:10:07.636Z,933.34
2018-05-11T00:11:07.595Z,933.30
2018-05-11T00:12:07.535Z,933.32
2018-05-11T00:13:07.498Z,933.31
2018-05-11T00:14:07.454Z,933.27
2018-05-11T00:15:07.420Z,933.23
2018-05-11T00:16:07.373Z,933.23
2018-05-11T00:17:07.328Z,933.20
2018-05-11T00:18:07.289Z,933.23
2018-05-11T00:19:07.219Z,933.22
2018-05-11T00:20:07.375Z,933.20
2018-05-11T00:21:07.155Z,933.23
2018-05-11T00:22:07.111Z,933.26
2018-05-11T00:23:07.051Z,933.20
2018-05-11T00:24:07.029Z,933.22
2018-05-11T00:25:06.983Z,933.20
2018-05-11T00:26:07.124Z,933.19
2018-05-11T00:27:06.892Z,933.20
2018-05-11T00:28:06.848Z,933.20
2018-05-11T00:29:06.807Z,933.16
2018-05-11T00:30:06.781Z,933.17
2018-05-11T00:31:06.713Z,933.18
2018-05-11T00:32:06.642Z,933.19
2018-05-11T00:33:06.632Z,933.19
2018-05-11T00:34:06.566Z,933.17
2018-05-11T00:35:06.525Z,933.17
2018-05-11T00:36:06.479Z,933.19
2018-05-11T00:37:06.442Z,933.21
2018-05-11T00:38:06.396Z,933.24
2018-05-11T00:39:06.331Z,933.20
2018-05-11T00:40:06.302Z,933.20
2018-05-11T00:41:06.251Z,933.24
2018-05-11T00:42:06.224Z,933.23
2018-05-11T00:43:06.169Z,933.18
2018-05-11T00:44:06.325Z,933.22
2018-05-11T00:45:06.083Z,933.20
2018-05-11T00:46:06.036Z,933.22
2018-05-11T00:47:05.991Z,933.23
2018-05-11T00:48:05.947Z,933.20
2018-05-11T00:49:05.904Z,933.17
2018-05-11T00:50:06.088Z,933.20
2018-05-11T00:51:05.909Z,933.19
2018-05-11T00:52:05.782Z,933.18
2018-05-11T00:53:05.739Z,933.20
2018-05-11T00:54:05.692Z,933.22
2018-05-11T00:55:05.624Z,933.25
2018-05-11T00:56:05.619Z,933.23
2018-05-11T00:57:05.551Z,933.27
2018-05-11T00:58:05.531Z,933.26
2018-05-11T00:59:05.482Z,933.27
2018-05-11T01:00:05.401Z,933.26
2018-05-11T01:01:05.383Z,933.29
2018-05-11T01:02:05.540Z,933.28
2018-05-11T01:03:05.308Z,933.23
2018-05-11T01:04:05.264Z,933.25
2018-05-11T01:05:05.218Z,933.25
2018-05-11T01:06:05.157Z,933.25
2018-05-11T01:07:05.090Z,933.27
2018-05-11T01:08:05.074Z,933.28
2018-05-11T01:09:05.564Z,933.26
2018-05-11T01:10:04.962Z,933.30
2018-05-11T01:11:04.954Z,933.31
2018-05-11T01:12:04.919Z,933.34
2018-05-11T01:13:04.853Z,933.37
2018-05-11T01:14:04.812Z,933.35
2018-05-11T01:15:04.750Z,933.33
2018-05-11T01:16:04.694Z,933.39
2018-05-11T01:17:04.652Z,933.38
2018-05-11T01:18:04.600Z,933.41
2018-05-11T01:19:04.585Z,933.42
2018-05-11T01:20:04.539Z,933.43
2018-05-11T01:21:04.468Z,933.41
2018-05-11T01:22:04.438Z,933.40
2018-05-11T01:23:04.380Z,933.40
2018-05-11T01:24:04.379Z,933.44
2018-05-11T01:25:04.306Z,933.44
2018-05-11T01:26:04.275Z,933.39
2018-05-11T01:27:04.212Z,933.40
2018-05-11T01:28:04.179Z,933.39
2018-05-11T01:29:04.114Z,933.36
2018-05-11T01:30:04.095Z,933.36
2018-05-11T01:31:04.033Z,933.35
2018-05-11T01:32:03.993Z,933.37
2018-05-11T01:33:03.964Z,933.36
2018-05-11T01:34:03.921Z,933.34
2018-05-11T01:35:03.865Z,933.37
2018-05-11T01:36:03.823Z,933.35
2018-05-11T01:37:03.776Z,933.34
2018-05-11T01:38:03.743Z,933.33
2018-05-11T01:39:03.682Z,933.36
2018-05-11T01:40:03.640Z,933.34
2018-05-11T01:41:03.607Z,933.38
2018-05-11T01:42:03.543Z,933.37
2018-05-11T01:43:03.532Z,933.39
2018-05-11T01:44:03.673Z,933.37
2018-05-11T01:45:03.427Z,933.38
2018-05-11T01:46:03.363Z,933.38
2018-05-11T01:47:03.359Z,933.35
2018-05-11T01:48:03.282Z,933.38
2018-05-11T01:49:03.246Z,933.38
2018-05-11T01:50:03.189Z,933.35
2018-05-11T01:51:03.135Z,933.36
2018-05-11T01:52:03.105Z,933.38
2018-05-11T01:53:03.067Z,933.35
2018-05-11T01:54:03.027Z,933.32
2018-05-11T01:55:02.957Z,933.35
2018-05-11T01:56:03.146Z,933.36
2018-05-11T01:57:02.878Z,933.37
2018-05-11T01:58:02.879Z,933.34
2018-05-11T01:59:02.784Z,933.35
2018-05-11T02:00:02.748Z,933.36
2018-05-11T02:01:02.741Z,933.33
2018-05-11T02:02:02.666Z,933.37
2018-05-11T02:03:02.612Z,933.33
2018-05-11T02:04:02.588Z,933.31
2018-05-11T02:05:02.551Z,933.37
2018-05-11T02:06:02.515Z,933.32
2018-05-11T02:07:02.463Z,933.34
2018-05-11T02:08:02.400Z,933.32
2018-05-11T02:09:02.342Z,933.29
2018-05-11T02:10:02.299Z,933.27
2018-05-11T02:11:02.264Z,933.27
2018-05-11T02:12:02.215Z,933.25
2018-05-11T02:13:02.167Z,933.25
2018-05-11T02:14:02.128Z,933.24
2018-05-11T02:15:02.115Z,933.23
2018-05-11T02:16:02.052Z,933.25
2018-05-11T02:17:01.992Z,933.25
2018-05-11T02:18:01.958Z,933.23
2018-05-11T02:19:01.927Z,933.23
2018-05-11T02:20:01.845Z,933.19
2018-05-11T02:21:01.829Z,933.26
2018-05-11T02:22:01.779Z,933.23
2018-05-11T02:23:01.725Z,933.23
2018-05-11T02:24:01.662Z,933.22
2018-05-11T02:25:01.621Z,933.19
2018-05-11T02:26:01.631Z,933.22
2018-05-11T02:27:01.555Z,933.21
2018-05-11T02:28:01.512Z,933.23
2018-05-11T02:29:01.467Z,933.24
2018-05-11T02:30:01.425Z,933.25
2018-05-11T02:31:01.357Z,933.25
2018-05-11T02:32:01.334Z,933.28
2018-05-11T02:33:01.278Z,933.29
2018-05-11T02:34:01.266Z,933.26
2018-05-11T02:35:01.189Z,933.29
2018-05-11T02:36:01.150Z,933.27
2018-05-11T02:37:01.187Z,933.26
2018-05-11T02:38:01.065Z,933.28
2018-05-11T02:39:01.020Z,933.27
2018-05-11T02:40:00.968Z,933.28
2018-05-11T02:41:00.944Z,933.25
2018-05-11T02:42:00.901Z,933.28
2018-05-11T02:43:00.843Z,933.27
2018-05-11T02:44:00.803Z,933.31
2018-05-11T02:45:00.727Z,933.26
2018-05-11T02:46:00.690Z,933.34
2018-05-11T02:47:00.659Z,933.30
2018-05-11T02:48:00.608Z,933.29
2018-05-11T02:49:00.577Z,933.30
2018-05-11T02:50:00.530Z,933.31
2018-05-11T02:51:00.485Z,933.28
2018-05-11T02:52:00.439Z,933.23
2018-05-11T02:53:00.397Z,933.25
2018-05-11T02:54:00.361Z,933.18
2018-05-11T02:55:00.305Z,933.14
2018-05-11T02:56:00.277Z,933.12
2018-05-11T02:57:00.232Z,933.11
2018-05-11T02:58:00.160Z,933.14
2018-05-11T02:59:00.113Z,933.20
2018-05-11T03:00:00.081Z,933.16
2018-05-11T03:01:00.027Z,933.15
2018-05-11T03:01:59.976Z,933.18
2018-05-11T03:02:59.942Z,933.17
2018-05-11T03:03:59.877Z,933.14
2018-05-11T03:04:59.833Z,933.13
2018-05-11T03:05:59.844Z,933.12
2018-05-11T03:06:59.743Z,933.15
2018-05-11T03:07:59.735Z,933.11
2018-05-11T03:08:59.679Z,933.11
2018-05-11T03:09:59.651Z,933.07
2018-05-11T03:10:59.579Z,933.09
2018-05-11T03:11:59.561Z,933.11
2018-05-11T03:12:59.500Z,933.05
2018-05-11T03:13:59.457Z,933.04
2018-05-11T03:14:59.403Z,932.98
2018-05-11T03:15:59.350Z,933.04
2018-05-11T03:16:59.311Z,933.01
2018-05-11T03:17:59.278Z,932.99
2018-05-11T03:18:59.215Z,932.99
2018-05-11T03:19:59.370Z,932.95
2018-05-11T03:20:59.157Z,932.94
2018-05-11T03:21:59.101Z,932.89
2018-05-11T03:22:59.052Z,932.83
2018-05-11T03:23:59.003Z,932.77
2018-05-11T03:24:58.951Z,932.86
2018-05-11T03:25:59.120Z,932.80
2018-05-11T03:26:58.875Z,932.81
2018-05-11T03:27:58.813Z,932.79
2018-05-11T03:28:58.806Z,932.73
2018-05-11T03:29:58.729Z,932.74
2018-05-11T03:30:58.697Z,932.77
2018-05-11T03:31:58.847Z,932.75
2018-05-11T03:32:58.621Z,932.71
2018-05-11T03:33:58.563Z,932.71
2018-05-11T03:34:58.505Z,932.72
2018-05-11T03:35:58.457Z,932.72
2018-05-11T03:36:58.454Z,932.71
2018-05-11T03:37:58.362Z,932.69
2018-05-11T03:38:58.325Z,932.70
2018-05-11T03:39:58.277Z,932.73
2018-05-11T03:40:58.249Z,932.76
2018-05-11T03:41:58.203Z,932.72
2018-05-11T03:42:58.165Z,932.74
2018-05-11T03:43:58.102Z,932.71
2018-05-11T03:44:58.048Z,932.69
2018-05-11T03:45:58.012Z,932.72
2018-05-11T03:46:57.993Z,932.75
2018-05-11T03:47:57.914Z,932.75
2018-05-11T03:48:57.892Z,932.76
2018-05-11T03:49:57.844Z,932.77
2018-05-11T03:50:57.782Z,932.77
2018-05-11T03:51:57.760Z,932.77
2018-05-11T03:52:57.692Z,932.76
2018-05-11T03:53:57.639Z,932.72
2018-05-11T03:54:57.610Z,932.71
2018-05-11T03:55:57.763Z,932.70
2018-05-11T03:56:57.518Z,932.68
2018-05-11T03:57:57.485Z,932.69
2018-05-11T03:58:57.432Z,932.63
2018-05-11T03:59:57.457Z,932.59
2018-05-11T04:00:57.326Z,932.59
2018-05-11T04:01:57.419Z,932.56
2018-05-11T04:02:57.277Z,932.54
2018-05-11T04:03:57.220Z,932.54
2018-05-11T04:04:57.191Z,932.54
2018-05-11T04:05:57.101Z,932.52
2018-05-11T04:06:57.089Z,932.54
2018-05-11T04:07:57.012Z,932.53
2018-05-11T04:08:56.994Z,932.52
2018-05-11T04:09:56.936Z,932.51
2018-05-11T04:10:56.894Z,932.51
2018-05-11T04:11:56.828Z,932.57
2018-05-11T04:12:56.794Z,932.57
2018-05-11T04:13:56.754Z,932.56
2018-05-11T04:14:56.719Z,932.56
2018-05-11T04:15:56.681Z,932.58
2018-05-11T04:16:56.614Z,932.50
2018-05-11T04:17:56.595Z,932.53
2018-05-11T04:18:56.539Z,932.49
2018-05-11T04:19:56.501Z,932.48
2018-05-11T04:20:56.459Z,932.47
2018-05-11T04:21:56.411Z,932.41
2018-05-11T04:22:56.336Z,932.40
2018-05-11T04:23:56.307Z,932.42
2018-05-11T04:24:56.268Z,932.44
2018-05-11T04:25:56.213Z,932.45
2018-05-11T04:26:56.188Z,932.39
2018-05-11T04:27:56.138Z,932.32
2018-05-11T04:28:56.160Z,932.29
2018-05-11T04:29:56.064Z,932.23
2018-05-11T04:30:56.001Z,932.23
2018-05-11T04:31:55.955Z,932.21
2018-05-11T04:32:55.897Z,932.22
2018-05-11T04:33:55.885Z,932.27
2018-05-11T04:34:55.796Z,932.32
2018-05-11T04:35:55.778Z,932.29
2018-05-11T04:36:55.743Z,932.33
2018-05-11T04:37:55.677Z,932.33
2018-05-11T04:38:55.624Z,932.32
2018-05-11T04:39:55.580Z,932.31
2018-05-11T04:40:55.542Z,932.33
2018-05-11T04:41:55.500Z,932.33
2018-05-11T04:42:55.480Z,932.29
2018-05-11T04:43:55.420Z,932.30
2018-05-11T04:44:55.353Z,932.35
2018-05-11T04:45:55.319Z,932.32
2018-05-11T04:46:55.373Z,932.34
2018-05-11T04:47:55.223Z,932.33
2018-05-11T04:48:55.185Z,932.38
2018-05-11T04:49:55.161Z,932.36
2018-05-11T04:50:55.080Z,932.36
2018-05-11T04:51:55.065Z,932.36
2018-05-11T04:52:55.004Z,932.37
2018-05-11T04:53:54.958Z,932.36
2018-05-11T04:54:54.913Z,932.32
2018-05-11T04:55:54.880Z,932.31
2018-05-11T04:56:54.817Z,932.33
2018-05-11T04:57:54.770Z,932.30
2018-05-11T04:58:54.720Z,932.31
2018-05-11T04:59:54.674Z,932.28
2018-05-11T05:00:54.643Z,932.27
2018-05-11T05:01:54.610Z,932.28
2018-05-11T05:02:54.553Z,932.27
2018-05-11T05:03:54.504Z,932.24
2018-05-11T05:04:54.452Z,932.18
2018-05-11T05:05:54.450Z,932.16
2018-05-11T05:06:54.385Z,932.18
2018-05-11T05:07:54.357Z,932.16
2018-05-11T05:08:54.268Z,932.17
2018-05-11T05:09:54.232Z,932.17
2018-05-11T05:10:54.204Z,932.20
2018-05-11T05:11:54.134Z,932.20
2018-05-11T05:12:54.103Z,932.16
2018-05-11T05:13:54.072Z,932.13
2018-05-11T05:14:54.028Z,932.15
2018-05-11T05:15:53.950Z,932.15
2018-05-11T05:16:53.920Z,932.11
2018-05-11T05:17:53.860Z,932.11
2018-05-11T05:18:53.847Z,932.09
2018-05-11T05:19:53.790Z,932.08
2018-05-11T05:20:53.780Z,932.08
2018-05-11T05:21:53.684Z,932.06
2018-05-11T05:22:53.664Z,932.04
2018-05-11T05:23:53.618Z,932.02
2018-05-11T05:24:53.577Z,932.03
2018-05-11T05:25:53.517Z,932.00
2018-05-11T05:26:53.473Z,932.02
2018-05-11T05:27:53.453Z,932.00
2018-05-11T05:28:53.375Z,931.98
2018-05-11T05:29:53.348Z,931.99
2018-05-11T05:30:53.318Z,931.94
2018-05-11T05:31:53.246Z,931.98
2018-05-11T05:32:53.183Z,931.96
2018-05-11T05:33:53.159Z,931.91
2018-05-11T05:34:53.093Z,931.96
2018-05-11T05:35:53.065Z,931.93
2018-05-11T05:36:53.036Z,931.91
2018-05-11T05:37:52.986Z,931.93
2018-05-11T05:38:52.966Z,931.92
2018-05-11T05:39:52.885Z,931.91
2018-05-11T05:40:52.840Z,931.93
2018-05-11T05:41:52.821Z,931.91
2018-05-11T05:42:52.744Z,931.88
2018-05-11T05:43:52.687Z,931.87
2018-05-11T05:44:52.687Z,931.86
2018-05-11T05:45:52.740Z,931.87
2018-05-11T05:46:52.595Z,931.85
2018-05-11T05:47:52.539Z,931.81
2018-05-11T05:48:52.472Z,931.81
2018-05-11T05:49:52.442Z,931.81
2018-05-11T05:50:52.393Z,931.77
2018-05-11T05:51:52.342Z,931.73
2018-05-11T05:52:52.318Z,931.77
2018-05-11T05:53:52.239Z,931.72
2018-05-11T05:54:52.222Z,931.75
2018-05-11T05:55:52.148Z,931.72
2018-05-11T05:56:52.112Z,931.74
2018-05-11T05:57:52.088Z,931.74
2018-05-11T05:58:52.021Z,931.76
2018-05-11T05:59:52.017Z,931.74
2018-05-11T06:00:51.955Z,931.79
2018-05-11T06:01:51.900Z,931.75
2018-05-11T06:02:51.883Z,931.79
2018-05-11T06:03:51.793Z,931.82
2018-05-11T06:04:51.764Z,931.81
2018-05-11T06:05:51.721Z,931.76
2018-05-11T06:06:51.697Z,931.74
2018-05-11T06:07:51.617Z,931.73
2018-05-11T06:08:51.560Z,931.71
2018-05-11T06:09:51.514Z,931.69
2018-05-11T06:10:51.506Z,931.69
2018-05-11T06:11:51.425Z,931.72
2018-05-11T06:12:51.376Z,931.68
2018-05-11T06:13:51.360Z,931.69
2018-05-11T06:14:51.296Z,931.64
2018-05-11T06:15:51.258Z,931.65
2018-05-11T06:16:51.231Z,931.63
2018-05-11T06:17:51.181Z,931.63
2018-05-11T06:18:51.136Z,931.66
2018-05-11T06:19:51.098Z,931.64
2018-05-11T06:20:51.016Z,931.61
2018-05-11T06:21:50.996Z,931.58
2018-05-11T06:22:50.976Z,931.58
2018-05-11T06:23:50.900Z,931.56
2018-05-11T06:24:54.671Z,931.56
2018-05-11T06:25:50.811Z,931.56
2018-05-11T06:26:50.765Z,931.52
2018-05-11T06:27:50.708Z,931.56
2018-05-11T06:28:50.676Z,931.51
2018-05-11T06:29:50.625Z,931.51
2018-05-11T06:30:50.562Z,931.53
2018-05-11T06:31:50.558Z,931.47
2018-05-11T06:32:50.489Z,931.52
2018-05-11T06:33:50.441Z,931.49
2018-05-11T06:34:50.421Z,931.49
2018-05-11T06:35:50.362Z,931.50
2018-05-11T06:36:50.288Z,931.51
2018-05-11T06:37:50.256Z,931.47
2018-05-11T06:38:50.202Z,931.40
2018-05-11T06:39:50.180Z,931.46
2018-05-11T06:40:50.135Z,931.46
2018-05-11T06:41:50.060Z,931.46
2018-05-11T06:42:50.040Z,931.46
2018-05-11T06:43:49.986Z,931.46
2018-05-11T06:44:49.952Z,931.45
2018-05-11T06:45:49.908Z,931.47
2018-05-11T06:46:49.865Z,931.43
2018-05-11T06:47:49.806Z,931.45
2018-05-11T06:48:49.760Z,931.43
2018-05-11T06:49:49.720Z,931.42
2018-05-11T06:50:49.685Z,931.44
2018-05-11T06:51:49.640Z,931.51
2018-05-11T06:52:49.601Z,931.49
2018-05-11T06:53:49.527Z,931.51
2018-05-11T06:54:49.500Z,931.49
2018-05-11T06:55:49.523Z,931.52
2018-05-11T06:56:49.411Z,931.55
2018-05-11T06:57:49.349Z,931.56
2018-05-11T06:58:49.320Z,931.52
2018-05-11T06:59:49.254Z,931.54
2018-05-11T07:00:49.216Z,931.55
2018-05-11T07:01:49.167Z,931.57
2018-05-11T07:02:49.128Z,931.57
2018-05-11T07:03:49.111Z,931.54
2018-05-11T07:04:49.040Z,931.53
2018-05-11T07:05:49.008Z,931.55
2018-05-11T07:06:48.939Z,931.59
2018-05-11T07:07:49.085Z,931.51
2018-05-11T07:08:48.860Z,931.51
2018-05-11T07:09:48.806Z,931.48
2018-05-11T07:10:48.776Z,931.52
2018-05-11T07:11:48.726Z,931.55
2018-05-11T07:12:48.710Z,931.53
2018-05-11T07:13:48.629Z,931.52
2018-05-11T07:14:48.605Z,931.51
2018-05-11T07:15:48.521Z,931.54
2018-05-11T07:16:48.487Z,931.48
2018-05-11T07:17:48.441Z,931.50
2018-05-11T07:18:48.383Z,931.52
2018-05-11T07:19:48.347Z,931.53
2018-05-11T07:20:48.293Z,931.52
2018-05-11T07:21:48.287Z,931.52
2018-05-11T07:22:48.203Z,931.54
2018-05-11T07:23:48.169Z,931.55
2018-05-11T07:24:48.108Z,931.53
2018-05-11T07:25:48.112Z,931.59
2018-05-11T07:26:48.034Z,931.56
2018-05-11T07:27:47.970Z,931.59
2018-05-11T07:28:47.933Z,931.60
2018-05-11T07:29:47.883Z,931.61
2018-05-11T07:30:47.888Z,931.64
2018-05-11T07:31:47.804Z,931.56
2018-05-11T07:32:47.747Z,931.56
2018-05-11T07:33:47.747Z,931.55
2018-05-11T07:34:47.683Z,931.54
2018-05-11T07:35:47.637Z,931.52
2018-05-11T07:36:47.575Z,931.55
2018-05-11T07:37:47.533Z,931.51
2018-05-11T07:38:47.475Z,931.51
2018-05-11T07:39:47.430Z,931.52
2018-05-11T07:40:47.402Z,931.51
2018-05-11T07:41:47.351Z,931.55
2018-05-11T07:42:47.316Z,931.56
2018-05-11T07:43:47.268Z,931.55
2018-05-11T07:44:47.202Z,931.51
2018-05-11T07:45:47.195Z,931.53
2018-05-11T07:46:47.149Z,931.53
2018-05-11T07:47:47.092Z,931.55
2018-05-11T07:48:47.020Z,931.58
2018-05-11T07:49:46.994Z,931.60
2018-05-11T07:50:46.969Z,931.60
2018-05-11T07:51:46.898Z,931.59
2018-05-11T07:52:46.877Z,931.58
2018-05-11T07:53:46.813Z,931.57
2018-05-11T07:54:46.791Z,931.59
2018-05-11T07:55:46.701Z,931.59
2018-05-11T07:56:46.686Z,931.57
2018-05-11T07:57:46.609Z,931.60
2018-05-11T07:58:46.612Z,931.57
2018-05-11T07:59:46.551Z,931.60
2018-05-11T08:00:46.493Z,931.58
2018-05-11T08:01:46.456Z,931.58
2018-05-11T08:02:46.397Z,931.57
2018-05-11T08:03:46.363Z,931.60
2018-05-11T08:04:46.310Z,931.56
2018-05-11T08:05:46.260Z,931.56
2018-05-11T08:06:46.240Z,931.57
2018-05-11T08:07:46.194Z,931.55
2018-05-11T08:08:46.138Z,931.55
2018-05-11T08:09:46.104Z,931.53
2018-05-11T08:10:46.045Z,931.51
2018-05-11T08:11:45.983Z,931.54
2018-05-11T08:12:45.941Z,931.47
2018-05-11T08:13:45.880Z,931.51
2018-05-11T08:14:45.837Z,931.52
2018-05-11T08:15:45.805Z,931.52
2018-05-11T08:16:45.788Z,931.54
2018-05-11T08:17:45.753Z,931.53
2018-05-11T08:18:45.672Z,931.59
2018-05-11T08:19:45.610Z,931.60
2018-05-11T08:20:45.579Z,931.65
2018-05-11T08:21:45.558Z,931.65
2018-05-11T08:22:45.501Z,931.61
2018-05-11T08:23:45.456Z,931.63
2018-05-11T08:24:45.393Z,931.65
2018-05-11T08:25:45.376Z,931.72
2018-05-11T08:26:45.388Z,931.76
2018-05-11T08:27:45.273Z,931.77
2018-05-11T08:28:45.240Z,931.81
2018-05-11T08:29:45.174Z,931.80
2018-05-11T08:30:45.117Z,931.85
2018-05-11T08:31:45.091Z,931.84
2018-05-11T08:32:45.067Z,931.91
2018-05-11T08:33:44.995Z,931.87
2018-05-11T08:34:44.953Z,931.88
2018-05-11T08:35:44.887Z,931.84
2018-05-11T08:36:44.865Z,931.84
2018-05-11T08:37:44.827Z,931.83
2018-05-11T08:38:44.755Z,931.84
2018-05-11T08:39:44.714Z,931.85
2018-05-11T08:40:45.194Z,931.88
2018-05-11T08:41:44.606Z,931.83
2018-05-11T08:42:44.562Z,931.86
2018-05-11T08:43:44.582Z,931.88
2018-05-11T08:44:44.486Z,931.87
2018-05-11T08:45:44.440Z,931.90
2018-05-11T08:46:44.422Z,931.92
2018-05-11T08:47:44.363Z,931.90
2018-05-11T08:48:44.303Z,931.91
2018-05-11T08:49:44.274Z,931.91
2018-05-11T08:50:44.238Z,931.93
2018-05-11T08:51:44.169Z,931.93
2018-05-11T08:52:44.123Z,931.96
2018-05-11T08:53:44.062Z,931.94
2018-05-11T08:54:44.050Z,931.89
2018-05-11T08:55:44.014Z,931.95
2018-05-11T08:56:43.943Z,931.92
2018-05-11T08:57:43.904Z,931.96
2018-05-11T08:58:43.847Z,931.99
2018-05-11T08:59:43.799Z,931.98
2018-05-11T09:00:43.758Z,932.04
2018-05-11T09:01:43.735Z,932.05
2018-05-11T09:02:43.667Z,932.02
2018-05-11T09:03:43.620Z,932.06
2018-05-11T09:04:43.575Z,932.08
2018-05-11T09:05:43.559Z,932.09
2018-05-11T09:06:43.498Z,932.10
2018-05-11T09:07:43.431Z,932.11
2018-05-11T09:08:43.499Z,932.12
2018-05-11T09:09:43.348Z,932.14
2018-05-11T09:10:43.299Z,932.19
2018-05-11T09:11:43.255Z,932.18
2018-05-11T09:12:43.283Z,932.14
2018-05-11T09:13:43.151Z,932.16
2018-05-11T09:14:43.149Z,932.14
2018-05-11T09:15:43.060Z,932.16
2018-05-11T09:16:43.014Z,932.17
2018-05-11T09:17:42.965Z,932.16
2018-05-11T09:18:42.964Z,932.21
2018-05-11T09:19:42.893Z,932.22
2018-05-11T09:20:42.839Z,932.25
2018-05-11T09:21:42.825Z,932.24
2018-05-11T09:22:42.737Z,932.23
2018-05-11T09:23:42.697Z,932.25
2018-05-11T09:24:42.651Z,932.25
2018-05-11T09:25:42.631Z,932.24
2018-05-11T09:26:42.573Z,932.27
2018-05-11T09:27:42.534Z,932.24
2018-05-11T09:28:42.494Z,932.25
2018-05-11T09:29:42.430Z,932.32
2018-05-11T09:30:42.382Z,932.28
2018-05-11T09:31:42.383Z,932.32
2018-05-11T09:32:42.300Z,932.36
2018-05-11T09:33:42.280Z,932.37
2018-05-11T09:34:42.208Z,932.42
2018-05-11T09:35:42.159Z,932.45
2018-05-11T09:36:42.117Z,932.40
2018-05-11T09:37:42.096Z,932.45
2018-05-11T09:38:42.027Z,932.48
2018-05-11T09:39:42.081Z,932.44
2018-05-11T09:40:41.922Z,932.47
2018-05-11T09:41:41.907Z,932.44
2018-05-11T09:42:41.870Z,932.49
2018-05-11T09:43:41.792Z,932.49
2018-05-11T09:44:41.754Z,932.51
2018-05-11T09:45:41.694Z,932.50
2018-05-11T09:46:41.663Z,932.55
2018-05-11T09:47:41.616Z,932.59
2018-05-11T09:48:41.598Z,932.56
2018-05-11T09:49:41.536Z,932.53
2018-05-11T09:50:41.491Z,932.53
2018-05-11T09:51:41.435Z,932.53
2018-05-11T09:52:41.386Z,932.56
2018-05-11T09:53:41.349Z,932.60
2018-05-11T09:54:41.853Z,932.64
2018-05-11T09:55:41.262Z,932.66
2018-05-11T09:56:41.203Z,932.76
2018-05-11T09:57:41.153Z,932.74
2018-05-11T09:58:41.128Z,932.66
2018-05-11T09:59:41.081Z,932.72
2018-05-11T10:00:41.039Z,932.74
2018-05-11T10:01:41.024Z,932.76
2018-05-11T10:02:40.960Z,932.79
2018-05-11T10:03:40.888Z,932.78
2018-05-11T10:04:40.842Z,932.86
2018-05-11T10:05:40.796Z,932.95
2018-05-11T10:06:40.749Z,932.90
2018-05-11T10:07:40.710Z,932.86
2018-05-11T10:08:40.690Z,932.85
2018-05-11T10:09:40.625Z,932.86
2018-05-11T10:10:40.563Z,932.89
2018-05-11T10:11:40.541Z,932.87
2018-05-11T10:12:40.490Z,932.91
2018-05-11T10:13:40.423Z,932.91
2018-05-11T10:14:40.405Z,932.93
2018-05-11T10:15:40.343Z,932.91
2018-05-11T10:16:40.287Z,932.96
2018-05-11T10:17:40.255Z,932.97
2018-05-11T10:18:40.217Z,932.97
2018-05-11T10:19:40.185Z,933.00
2018-05-11T10:20:40.139Z,932.97
2018-05-11T10:21:40.062Z,933.02
2018-05-11T10:22:40.051Z,933.05
2018-05-11T10:23:40.012Z,933.03
2018-05-11T10:24:39.948Z,932.99
2018-05-11T10:25:39.932Z,932.97
2018-05-11T10:26:39.860Z,932.96
2018-05-11T10:27:39.819Z,932.94
2018-05-11T10:28:39.820Z,932.96
2018-05-11T10:29:39.703Z,932.96
2018-05-11T10:30:39.686Z,933.05
2018-05-11T10:31:39.653Z,933.12
2018-05-11T10:32:39.606Z,933.24
2018-05-11T10:33:39.550Z,933.50
2018-05-11T10:34:39.496Z,933.63
2018-05-11T10:35:39.463Z,933.70
2018-05-11T10:36:39.401Z,933.73
2018-05-11T10:37:39.347Z,933.63
2018-05-11T10:38:39.316Z,933.34
2018-05-11T10:39:39.261Z,933.71
2018-05-11T10:40:39.250Z,933.73
2018-05-11T10:41:39.196Z,933.65
2018-05-11T10:42:39.167Z,933.68
2018-05-11T10:43:39.139Z,933.71
2018-05-11T10:44:39.066Z,933.81
2018-05-11T10:45:39.038Z,933.83
2018-05-11T10:46:38.982Z,933.84
2018-05-11T10:47:38.979Z,933.78
2018-05-11T10:48:39.061Z,933.84
2018-05-11T10:49:38.906Z,933.85
2018-05-11T10:50:38.834Z,933.86
2018-05-11T10:51:38.826Z,933.87
2018-05-11T10:52:38.787Z,933.87
2018-05-11T10:53:38.721Z,933.93
2018-05-11T10:54:38.679Z,933.89
2018-05-11T10:55:38.659Z,933.88
2018-05-11T10:56:38.627Z,933.92
2018-05-11T10:57:38.577Z,933.96
2018-05-11T10:58:38.547Z,933.92
2018-05-11T10:59:38.510Z,933.95
2018-05-11T11:00:38.480Z,933.99
2018-05-11T11:01:38.457Z,934.05
2018-05-11T11:02:38.424Z,934.02
2018-05-11T11:03:38.390Z,934.09
2018-05-11T11:04:38.327Z,934.06
2018-05-11T11:05:38.307Z,934.09
2018-05-11T11:06:38.280Z,933.90
2018-05-11T11:07:38.256Z,933.53
2018-05-11T11:08:38.205Z,933.39
2018-05-11T11:09:38.173Z,933.40
2018-05-11T11:10:38.141Z,933.41
2018-05-11T11:11:38.113Z,933.45
2018-05-11T11:12:38.061Z,933.44
2018-05-11T11:13:38.077Z,933.47
2018-05-11T11:14:37.976Z,933.50
2018-05-11T11:15:37.936Z,933.51
2018-05-11T11:16:37.884Z,933.57
2018-05-11T11:17:37.860Z,933.51
2018-05-11T11:18:37.807Z,933.50
2018-05-11T11:19:37.795Z,933.51
2018-05-11T11:20:37.727Z,933.44
2018-05-11T11:21:37.711Z,933.47
2018-05-11T11:22:37.668Z,933.48
2018-05-11T11:23:37.636Z,933.48
2018-05-11T11:24:37.605Z,933.47
2018-05-11T11:25:37.529Z,933.52
2018-05-11T11:26:37.509Z,933.46
2018-05-11T11:27:37.440Z,933.48
2018-05-11T11:28:37.410Z,933.44
2018-05-11T11:29:37.375Z,933.44
2018-05-11T11:30:37.323Z,933.44
2018-05-11T11:31:37.299Z,933.44
2018-05-11T11:32:37.243Z,933.43
2018-05-11T11:33:37.213Z,933.45
2018-05-11T11:34:37.177Z,933.46
2018-05-11T11:35:37.106Z,933.50
2018-05-11T11:36:37.086Z,933.43
2018-05-11T11:37:37.029Z,933.42
2018-05-11T11:38:37.033Z,933.46
2018-05-11T11:39:36.991Z,933.46
2018-05-11T11:40:36.917Z,933.45
2018-05-11T11:41:36.870Z,933.50
2018-05-11T11:42:36.818Z,933.48
2018-05-11T11:43:36.775Z,933.55
2018-05-11T11:44:36.744Z,933.55
2018-05-11T11:45:36.690Z,933.54
2018-05-11T11:46:36.659Z,933.57
2018-05-11T11:47:36.632Z,933.59
2018-05-11T11:48:36.575Z,933.56
2018-05-11T11:49:36.516Z,933.51
2018-05-11T11:50:36.479Z,933.54
2018-05-11T11:51:36.434Z,933.50
2018-05-11T11:52:36.403Z,933.57
2018-05-11T11:53:36.341Z,933.56
2018-05-11T11:54:36.332Z,933.55
2018-05-11T11:55:36.274Z,933.54
2018-05-11T11:56:36.257Z,933.62
2018-05-11T11:57:36.188Z,933.57
2018-05-11T11:58:36.133Z,933.56
2018-05-11T11:59:36.090Z,933.56
2018-05-11T12:00:36.053Z,933.57
2018-05-11T12:01:36.045Z,933.58
2018-05-11T12:02:35.975Z,933.60
2018-05-11T12:03:35.924Z,933.59
2018-05-11T12:04:35.856Z,933.58
2018-05-11T12:05:35.825Z,933.57
2018-05-11T12:06:35.771Z,933.56
2018-05-11T12:07:35.762Z,933.56
2018-05-11T12:08:35.688Z,933.57
2018-05-11T12:09:35.673Z,933.57
2018-05-11T12:10:35.615Z,933.57
2018-05-11T12:11:35.577Z,933.55
2018-05-11T12:12:35.529Z,933.54
2018-05-11T12:13:35.498Z,933.54
2018-05-11T12:14:35.440Z,933.52
2018-05-11T12:15:35.418Z,933.54
2018-05-11T12:16:35.345Z,933.53
2018-05-11T12:17:35.330Z,933.56
2018-05-11T12:18:35.256Z,933.55
2018-05-11T12:19:35.235Z,933.56
2018-05-11T12:20:35.198Z,933.57
2018-05-11T12:21:35.156Z,933.57
2018-05-11T12:22:35.131Z,933.55
2018-05-11T12:23:35.065Z,933.53
2018-05-11T12:24:35.019Z,933.54
2018-05-11T12:25:34.986Z,933.55
2018-05-11T12:26:34.927Z,933.53
2018-05-11T12:27:34.913Z,933.55